sensor_id;sensor_type;location;lat;lon;timestamp;P1;durP1;ratioP1;P2;durP2;ratioP2
64966;SDS011;51710;38.732;-121.358;2022-12-18T00:01:21;6.03;;;3.20;;
64966;SDS011;51710;38.732;-121.358;2022-12-18T00:03:50;5.82;;;3.13;;
64966;SDS011;51710;38.732;-121.358;2022-12-18T00:06:18;9.50;;;3.47;;
64966;SDS011;51710;38.732;-121.358;2022-12-18T00:08:45;6.07;;;2.88;;
64966;SDS011;51710;38.732;-121.358;2022-12-18T00:11:14;6.30;;;3.22;;
64966;SDS011;51710;38.732;-121.358;2022-12-18T00:13:42;8.52;;;3.03;;
64966;SDS011;51710;38.732;-121.358;2022-12-18T00:16:10;6.18;;;3.15;;
64966;SDS011;51710;38.732;-121.358;2022-12-18T00:18:37;14.60;;;3.33;;
64966;SDS011;51710;38.732;-121.358;2022-12-18T00:21:05;6.60;;;3.10;;
64966;SDS011;51710;38.732;-121.358;2022-12-18T00:23:32;6.00;;;3.13;;
64966;SDS011;51710;38.732;-121.358;2022-12-18T00:26:01;7.13;;;3.28;;
64966;SDS011;51710;38.732;-121.358;2022-12-18T00:28:28;5.57;;;2.90;;
64966;SDS011;51710;38.732;-121.358;2022-12-18T00:31:02;4.90;;;2.88;;
64966;SDS011;51710;38.732;-121.358;2022-12-18T00:33:34;7.00;;;3.00;;
64966;SDS011;51710;38.732;-121.358;2022-12-18T00:36:02;6.05;;;3.17;;
64966;SDS011;51710;38.732;-121.358;2022-12-18T00:38:33;6.10;;;3.00;;
64966;SDS011;51710;38.732;-121.358;2022-12-18T00:41:00;5.97;;;3.05;;
64966;SDS011;51710;38.732;-121.358;2022-12-18T00:43:26;6.35;;;3.65;;
64966;SDS011;51710;38.732;-121.358;2022-12-18T00:45:53;6.70;;;3.45;;
64966;SDS011;51710;38.732;-121.358;2022-12-18T00:48:19;7.53;;;3.40;;
64966;SDS011;51710;38.732;-121.358;2022-12-18T00:50:47;4.82;;;2.72;;
64966;SDS011;51710;38.732;-121.358;2022-12-18T00:53:15;6.00;;;3.40;;
64966;SDS011;51710;38.732;-121.358;2022-12-18T00:55:41;7.72;;;2.88;;
64966;SDS011;51710;38.732;-121.358;2022-12-18T00:58:08;7.00;;;3.42;;
64966;SDS011;51710;38.732;-121.358;2022-12-18T01:00:36;6.78;;;3.40;;
64966;SDS011;51710;38.732;-121.358;2022-12-18T01:03:03;6.90;;;3.42;;
64966;SDS011;51710;38.732;-121.358;2022-12-18T01:05:30;6.85;;;3.28;;
64966;SDS011;51710;38.732;-121.358;2022-12-18T01:07:56;6.97;;;3.42;;
64966;SDS011;51710;38.732;-121.358;2022-12-18T01:10:23;6.93;;;3.47;;
64966;SDS011;51710;38.732;-121.358;2022-12-18T01:12:51;5.68;;;3.15;;
64966;SDS011;51710;38.732;-121.358;2022-12-18T01:15:17;6.50;;;3.15;;
64966;SDS011;51710;38.732;-121.358;2022-12-18T01:17:44;5.75;;;3.25;;
64966;SDS011;51710;38.732;-121.358;2022-12-18T01:20:11;6.70;;;3.53;;
64966;SDS011;51710;38.732;-121.358;2022-12-18T01:22:38;9.32;;;3.65;;
64966;SDS011;51710;38.732;-121.358;2022-12-18T01:25:05;9.27;;;3.28;;
64966;SDS011;51710;38.732;-121.358;2022-12-18T01:27:33;10.15;;;3.22;;
64966;SDS011;51710;38.732;-121.358;2022-12-18T01:29:59;5.80;;;3.20;;
64966;SDS011;51710;38.732;-121.358;2022-12-18T01:32:26;7.85;;;3.42;;
64966;SDS011;51710;38.732;-121.358;2022-12-18T01:34:54;6.50;;;3.65;;
64966;SDS011;51710;38.732;-121.358;2022-12-18T01:37:20;5.53;;;3.28;;
64966;SDS011;51710;38.732;-121.358;2022-12-18T01:39:47;7.53;;;3.58;;
64966;SDS011;51710;38.732;-121.358;2022-12-18T01:42:15;6.85;;;3.10;;
64966;SDS011;51710;38.732;-121.358;2022-12-18T01:47:36;6.78;;;3.40;;
64966;SDS011;51710;38.732;-121.358;2022-12-18T01:50:11;7.10;;;3.72;;
64966;SDS011;51710;38.732;-121.358;2022-12-18T01:52:51;6.05;;;3.42;;
64966;SDS011;51710;38.732;-121.358;2022-12-18T01:55:24;7.78;;;3.67;;
64966;SDS011;51710;38.732;-121.358;2022-12-18T01:57:55;6.72;;;3.30;;
64966;SDS011;51710;38.732;-121.358;2022-12-18T02:00:24;7.32;;;3.97;;
64966;SDS011;51710;38.732;-121.358;2022-12-18T02:02:53;6.93;;;4.28;;
64966;SDS011;51710;38.732;-121.358;2022-12-18T02:05:23;8.65;;;4.40;;
64966;SDS011;51710;38.732;-121.358;2022-12-18T02:08:00;7.38;;;3.88;;
64966;SDS011;51710;38.732;-121.358;2022-12-18T02:10:33;11.60;;;4.68;;
64966;SDS011;51710;38.732;-121.358;2022-12-18T02:13:12;25.23;;;13.10;;
64966;SDS011;51710;38.732;-121.358;2022-12-18T02:15:44;38.60;;;18.35;;
64966;SDS011;51710;38.732;-121.358;2022-12-18T02:18:29;33.08;;;16.92;;
64966;SDS011;51710;38.732;-121.358;2022-12-18T02:26:38;112.30;;;56.42;;
64966;SDS011;51710;38.732;-121.358;2022-12-18T02:29:29;66.07;;;34.17;;
64966;SDS011;51710;38.732;-121.358;2022-12-18T02:32:13;21.23;;;11.85;;
64966;SDS011;51710;38.732;-121.358;2022-12-18T02:34:43;14.00;;;7.63;;
64966;SDS011;51710;38.732;-121.358;2022-12-18T02:37:12;11.77;;;6.68;;
64966;SDS011;51710;38.732;-121.358;2022-12-18T02:39:42;12.48;;;6.90;;
64966;SDS011;51710;38.732;-121.358;2022-12-18T02:42:11;14.05;;;6.30;;
64966;SDS011;51710;38.732;-121.358;2022-12-18T02:44:48;11.05;;;5.57;;
64966;SDS011;51710;38.732;-121.358;2022-12-18T02:47:28;9.98;;;5.13;;
64966;SDS011;51710;38.732;-121.358;2022-12-18T02:50:02;13.20;;;6.55;;
64966;SDS011;51710;38.732;-121.358;2022-12-18T02:58:19;10.15;;;5.75;;
64966;SDS011;51710;38.732;-121.358;2022-12-18T03:00:58;9.77;;;6.53;;
64966;SDS011;51710;38.732;-121.358;2022-12-18T03:03:40;11.80;;;6.30;;
64966;SDS011;51710;38.732;-121.358;2022-12-18T03:06:35;11.93;;;6.32;;
64966;SDS011;51710;38.732;-121.358;2022-12-18T03:09:04;9.45;;;5.50;;
64966;SDS011;51710;38.732;-121.358;2022-12-18T03:11:36;10.10;;;5.28;;
64966;SDS011;51710;38.732;-121.358;2022-12-18T03:14:24;11.20;;;6.05;;
64966;SDS011;51710;38.732;-121.358;2022-12-18T03:16:54;10.10;;;4.90;;
64966;SDS011;51710;38.732;-121.358;2022-12-18T03:19:26;14.65;;;5.43;;
64966;SDS011;51710;38.732;-121.358;2022-12-18T03:21:56;10.82;;;5.53;;
64966;SDS011;51710;38.732;-121.358;2022-12-18T03:24:24;11.20;;;5.65;;
64966;SDS011;51710;38.732;-121.358;2022-12-18T03:26:54;9.90;;;5.35;;
64966;SDS011;51710;38.732;-121.358;2022-12-18T03:29:32;9.93;;;4.80;;
64966;SDS011;51710;38.732;-121.358;2022-12-18T03:32:15;13.15;;;4.60;;
64966;SDS011;51710;38.732;-121.358;2022-12-18T03:34:51;8.52;;;5.15;;
64966;SDS011;51710;38.732;-121.358;2022-12-18T03:37:20;9.88;;;4.93;;
64966;SDS011;51710;38.732;-121.358;2022-12-18T03:39:47;9.15;;;4.72;;
64966;SDS011;51710;38.732;-121.358;2022-12-18T03:56:10;8.15;;;3.88;;
64966;SDS011;51710;38.732;-121.358;2022-12-18T03:58:39;8.93;;;5.07;;
64966;SDS011;51710;38.732;-121.358;2022-12-18T04:01:10;11.60;;;6.18;;
64966;SDS011;51710;38.732;-121.358;2022-12-18T04:03:40;9.82;;;5.00;;
64966;SDS011;51710;38.732;-121.358;2022-12-18T04:06:10;9.20;;;4.93;;
64966;SDS011;51710;38.732;-121.358;2022-12-18T04:08:37;9.70;;;5.35;;
64966;SDS011;51710;38.732;-121.358;2022-12-18T04:11:05;10.95;;;4.78;;
64966;SDS011;51710;38.732;-121.358;2022-12-18T04:13:35;11.82;;;5.55;;
64966;SDS011;51710;38.732;-121.358;2022-12-18T04:16:03;11.90;;;5.22;;
64966;SDS011;51710;38.732;-121.358;2022-12-18T04:18:30;8.60;;;5.07;;
64966;SDS011;51710;38.732;-121.358;2022-12-18T04:20:56;10.05;;;5.60;;
64966;SDS011;51710;38.732;-121.358;2022-12-18T04:23:23;12.13;;;5.80;;
64966;SDS011;51710;38.732;-121.358;2022-12-18T04:25:49;12.82;;;6.72;;
64966;SDS011;51710;38.732;-121.358;2022-12-18T04:28:16;13.60;;;6.63;;
64966;SDS011;51710;38.732;-121.358;2022-12-18T04:30:43;17.40;;;7.90;;
64966;SDS011;51710;38.732;-121.358;2022-12-18T04:33:12;20.58;;;10.35;;
64966;SDS011;51710;38.732;-121.358;2022-12-18T04:35:40;17.98;;;6.90;;
64966;SDS011;51710;38.732;-121.358;2022-12-18T04:38:07;13.05;;;6.75;;
64966;SDS011;51710;38.732;-121.358;2022-12-18T04:40:35;21.40;;;10.90;;
64966;SDS011;51710;38.732;-121.358;2022-12-18T04:43:03;19.17;;;8.30;;
64966;SDS011;51710;38.732;-121.358;2022-12-18T04:45:30;14.30;;;6.80;;
64966;SDS011;51710;38.732;-121.358;2022-12-18T04:47:58;14.05;;;7.93;;
64966;SDS011;51710;38.732;-121.358;2022-12-18T04:50:24;16.88;;;7.10;;
64966;SDS011;51710;38.732;-121.358;2022-12-18T04:52:51;18.10;;;8.45;;
64966;SDS011;51710;38.732;-121.358;2022-12-18T04:55:17;17.05;;;8.27;;
64966;SDS011;51710;38.732;-121.358;2022-12-18T04:57:43;15.73;;;7.88;;
64966;SDS011;51710;38.732;-121.358;2022-12-18T05:00:10;17.35;;;7.70;;
64966;SDS011;51710;38.732;-121.358;2022-12-18T05:02:36;19.55;;;8.43;;
64966;SDS011;51710;38.732;-121.358;2022-12-18T05:05:02;18.35;;;8.20;;
64966;SDS011;51710;38.732;-121.358;2022-12-18T05:07:29;19.88;;;8.20;;
64966;SDS011;51710;38.732;-121.358;2022-12-18T05:09:55;18.80;;;9.10;;
64966;SDS011;51710;38.732;-121.358;2022-12-18T05:12:21;21.90;;;10.45;;
64966;SDS011;51710;38.732;-121.358;2022-12-18T05:14:48;25.25;;;11.05;;
64966;SDS011;51710;38.732;-121.358;2022-12-18T05:17:14;20.27;;;11.18;;
64966;SDS011;51710;38.732;-121.358;2022-12-18T05:19:40;26.65;;;13.40;;
64966;SDS011;51710;38.732;-121.358;2022-12-18T05:22:06;24.13;;;12.98;;
64966;SDS011;51710;38.732;-121.358;2022-12-18T05:24:33;18.60;;;9.88;;
64966;SDS011;51710;38.732;-121.358;2022-12-18T05:26:59;21.90;;;9.95;;
64966;SDS011;51710;38.732;-121.358;2022-12-18T05:29:26;17.40;;;10.05;;
64966;SDS011;51710;38.732;-121.358;2022-12-18T05:31:52;22.73;;;10.10;;
64966;SDS011;51710;38.732;-121.358;2022-12-18T05:34:18;19.33;;;9.75;;
64966;SDS011;51710;38.732;-121.358;2022-12-18T05:36:44;21.83;;;9.95;;
64966;SDS011;51710;38.732;-121.358;2022-12-18T05:39:11;22.02;;;11.18;;
64966;SDS011;51710;38.732;-121.358;2022-12-18T05:41:37;18.83;;;10.02;;
64966;SDS011;51710;38.732;-121.358;2022-12-18T05:44:05;20.65;;;11.88;;
64966;SDS011;51710;38.732;-121.358;2022-12-18T05:46:35;20.35;;;10.63;;
64966;SDS011;51710;38.732;-121.358;2022-12-18T05:49:02;22.48;;;11.45;;
64966;SDS011;51710;38.732;-121.358;2022-12-18T05:51:28;24.15;;;12.18;;
64966;SDS011;51710;38.732;-121.358;2022-12-18T05:53:54;21.52;;;11.15;;
64966;SDS011;51710;38.732;-121.358;2022-12-18T05:56:21;21.65;;;11.32;;
64966;SDS011;51710;38.732;-121.358;2022-12-18T05:58:51;24.20;;;12.35;;
64966;SDS011;51710;38.732;-121.358;2022-12-18T06:01:19;26.52;;;12.85;;
64966;SDS011;51710;38.732;-121.358;2022-12-18T06:03:49;25.65;;;12.98;;
64966;SDS011;51710;38.732;-121.358;2022-12-18T06:06:25;25.17;;;13.95;;
64966;SDS011;51710;38.732;-121.358;2022-12-18T06:08:53;26.40;;;14.57;;
64966;SDS011;51710;38.732;-121.358;2022-12-18T06:11:22;28.55;;;14.65;;
64966;SDS011;51710;38.732;-121.358;2022-12-18T06:13:50;30.23;;;15.52;;
64966;SDS011;51710;38.732;-121.358;2022-12-18T06:16:20;27.42;;;15.98;;
64966;SDS011;51710;38.732;-121.358;2022-12-18T06:18:47;27.50;;;15.40;;
64966;SDS011;51710;38.732;-121.358;2022-12-18T06:21:13;27.05;;;14.35;;
64966;SDS011;51710;38.732;-121.358;2022-12-18T06:23:39;32.47;;;17.02;;
64966;SDS011;51710;38.732;-121.358;2022-12-18T06:26:06;34.83;;;17.10;;
64966;SDS011;51710;38.732;-121.358;2022-12-18T06:28:34;38.35;;;18.05;;
64966;SDS011;51710;38.732;-121.358;2022-12-18T06:31:02;34.80;;;17.88;;
64966;SDS011;51710;38.732;-121.358;2022-12-18T06:33:29;40.30;;;19.85;;
64966;SDS011;51710;38.732;-121.358;2022-12-18T06:36:02;42.55;;;19.20;;
64966;SDS011;51710;38.732;-121.358;2022-12-18T06:38:39;37.28;;;19.58;;
64966;SDS011;51710;38.732;-121.358;2022-12-18T06:41:07;33.20;;;18.80;;
64966;SDS011;51710;38.732;-121.358;2022-12-18T06:43:34;31.70;;;16.52;;
64966;SDS011;51710;38.732;-121.358;2022-12-18T06:46:02;33.55;;;17.45;;
64966;SDS011;51710;38.732;-121.358;2022-12-18T06:48:29;30.40;;;16.23;;
64966;SDS011;51710;38.732;-121.358;2022-12-18T06:50:56;28.13;;;15.40;;
64966;SDS011;51710;38.732;-121.358;2022-12-18T06:53:22;32.65;;;16.42;;
64966;SDS011;51710;38.732;-121.358;2022-12-18T06:55:49;24.25;;;14.27;;
64966;SDS011;51710;38.732;-121.358;2022-12-18T06:58:15;64.55;;;30.98;;
64966;SDS011;51710;38.732;-121.358;2022-12-18T07:00:41;28.40;;;17.23;;
64966;SDS011;51710;38.732;-121.358;2022-12-18T07:03:07;28.67;;;16.45;;
64966;SDS011;51710;38.732;-121.358;2022-12-18T07:05:34;29.25;;;15.85;;
64966;SDS011;51710;38.732;-121.358;2022-12-18T07:08:04;24.45;;;15.02;;
64966;SDS011;51710;38.732;-121.358;2022-12-18T07:10:31;23.23;;;13.60;;
64966;SDS011;51710;38.732;-121.358;2022-12-18T07:12:57;23.25;;;13.85;;
64966;SDS011;51710;38.732;-121.358;2022-12-18T07:15:24;32.13;;;16.83;;
64966;SDS011;51710;38.732;-121.358;2022-12-18T07:17:50;25.85;;;14.25;;
64966;SDS011;51710;38.732;-121.358;2022-12-18T07:20:16;22.38;;;14.30;;
64966;SDS011;51710;38.732;-121.358;2022-12-18T07:22:42;28.98;;;14.93;;
64966;SDS011;51710;38.732;-121.358;2022-12-18T07:25:09;27.67;;;14.32;;
64966;SDS011;51710;38.732;-121.358;2022-12-18T07:27:35;31.65;;;14.95;;
64966;SDS011;51710;38.732;-121.358;2022-12-18T07:30:01;28.25;;;15.35;;
64966;SDS011;51710;38.732;-121.358;2022-12-18T07:32:27;25.63;;;15.32;;
64966;SDS011;51710;38.732;-121.358;2022-12-18T07:34:55;25.52;;;15.50;;
64966;SDS011;51710;38.732;-121.358;2022-12-18T07:37:22;27.83;;;15.35;;
64966;SDS011;51710;38.732;-121.358;2022-12-18T07:39:48;25.02;;;13.45;;
64966;SDS011;51710;38.732;-121.358;2022-12-18T07:42:14;26.52;;;15.05;;
64966;SDS011;51710;38.732;-121.358;2022-12-18T07:44:56;27.27;;;15.32;;
64966;SDS011;51710;38.732;-121.358;2022-12-18T07:47:22;25.88;;;14.90;;
64966;SDS011;51710;38.732;-121.358;2022-12-18T07:49:49;25.70;;;14.00;;
64966;SDS011;51710;38.732;-121.358;2022-12-18T07:52:15;27.83;;;13.52;;
64966;SDS011;51710;38.732;-121.358;2022-12-18T07:54:41;24.98;;;14.15;;
64966;SDS011;51710;38.732;-121.358;2022-12-18T07:57:08;24.35;;;13.45;;
64966;SDS011;51710;38.732;-121.358;2022-12-18T07:59:34;24.25;;;14.40;;
64966;SDS011;51710;38.732;-121.358;2022-12-18T08:02:01;22.92;;;13.93;;
64966;SDS011;51710;38.732;-121.358;2022-12-18T08:04:27;23.42;;;13.30;;
64966;SDS011;51710;38.732;-121.358;2022-12-18T08:06:53;26.77;;;14.63;;
64966;SDS011;51710;38.732;-121.358;2022-12-18T08:09:19;24.38;;;14.98;;
64966;SDS011;51710;38.732;-121.358;2022-12-18T08:11:46;31.95;;;17.45;;
64966;SDS011;51710;38.732;-121.358;2022-12-18T08:14:12;25.80;;;14.45;;
64966;SDS011;51710;38.732;-121.358;2022-12-18T08:16:39;30.77;;;15.05;;
64966;SDS011;51710;38.732;-121.358;2022-12-18T08:19:06;26.88;;;14.93;;
64966;SDS011;51710;38.732;-121.358;2022-12-18T08:21:32;26.70;;;15.18;;
64966;SDS011;51710;38.732;-121.358;2022-12-18T08:23:59;31.05;;;15.30;;
64966;SDS011;51710;38.732;-121.358;2022-12-18T08:26:27;26.60;;;14.82;;
64966;SDS011;51710;38.732;-121.358;2022-12-18T08:28:55;26.05;;;15.27;;
64966;SDS011;51710;38.732;-121.358;2022-12-18T08:31:22;24.23;;;14.10;;
64966;SDS011;51710;38.732;-121.358;2022-12-18T08:33:50;23.98;;;15.07;;
64966;SDS011;51710;38.732;-121.358;2022-12-18T08:36:18;25.48;;;15.15;;
64966;SDS011;51710;38.732;-121.358;2022-12-18T08:38:48;27.73;;;15.57;;
64966;SDS011;51710;38.732;-121.358;2022-12-18T08:41:15;27.60;;;14.90;;
64966;SDS011;51710;38.732;-121.358;2022-12-18T08:43:42;24.92;;;15.48;;
64966;SDS011;51710;38.732;-121.358;2022-12-18T08:46:27;26.77;;;14.30;;
64966;SDS011;51710;38.732;-121.358;2022-12-18T08:49:00;27.75;;;13.95;;
64966;SDS011;51710;38.732;-121.358;2022-12-18T08:51:27;27.58;;;14.90;;
64966;SDS011;51710;38.732;-121.358;2022-12-18T08:53:53;27.65;;;14.88;;
64966;SDS011;51710;38.732;-121.358;2022-12-18T08:56:19;25.25;;;13.73;;
64966;SDS011;51710;38.732;-121.358;2022-12-18T08:58:46;27.45;;;13.77;;
64966;SDS011;51710;38.732;-121.358;2022-12-18T09:01:12;25.38;;;14.07;;
64966;SDS011;51710;38.732;-121.358;2022-12-18T09:03:39;25.98;;;14.02;;
64966;SDS011;51710;38.732;-121.358;2022-12-18T09:06:05;25.92;;;14.20;;
64966;SDS011;51710;38.732;-121.358;2022-12-18T09:08:32;22.23;;;13.98;;
64966;SDS011;51710;38.732;-121.358;2022-12-18T09:10:59;22.70;;;13.65;;
64966;SDS011;51710;38.732;-121.358;2022-12-18T09:13:25;27.20;;;12.73;;
64966;SDS011;51710;38.732;-121.358;2022-12-18T09:15:52;23.27;;;11.85;;
64966;SDS011;51710;38.732;-121.358;2022-12-18T09:18:21;18.35;;;10.82;;
64966;SDS011;51710;38.732;-121.358;2022-12-18T09:20:48;22.42;;;11.18;;
64966;SDS011;51710;38.732;-121.358;2022-12-18T09:23:18;21.27;;;11.35;;
64966;SDS011;51710;38.732;-121.358;2022-12-18T09:25:45;22.98;;;12.10;;
64966;SDS011;51710;38.732;-121.358;2022-12-18T09:28:12;24.13;;;12.95;;
64966;SDS011;51710;38.732;-121.358;2022-12-18T09:30:41;21.67;;;12.07;;
64966;SDS011;51710;38.732;-121.358;2022-12-18T09:33:09;21.63;;;12.88;;
64966;SDS011;51710;38.732;-121.358;2022-12-18T09:35:36;20.80;;;11.63;;
64966;SDS011;51710;38.732;-121.358;2022-12-18T09:38:04;22.67;;;11.70;;
64966;SDS011;51710;38.732;-121.358;2022-12-18T09:40:34;23.00;;;11.55;;
64966;SDS011;51710;38.732;-121.358;2022-12-18T09:45:42;21.65;;;11.23;;
64966;SDS011;51710;38.732;-121.358;2022-12-18T09:48:45;23.27;;;11.90;;
64966;SDS011;51710;38.732;-121.358;2022-12-18T09:51:11;19.38;;;11.50;;
64966;SDS011;51710;38.732;-121.358;2022-12-18T09:53:47;21.30;;;11.35;;
64966;SDS011;51710;38.732;-121.358;2022-12-18T09:56:36;20.02;;;12.13;;
64966;SDS011;51710;38.732;-121.358;2022-12-18T09:59:09;22.42;;;11.35;;
64966;SDS011;51710;38.732;-121.358;2022-12-18T10:01:44;23.60;;;11.35;;
64966;SDS011;51710;38.732;-121.358;2022-12-18T10:04:10;21.48;;;11.98;;
64966;SDS011;51710;38.732;-121.358;2022-12-18T10:06:45;18.15;;;10.98;;
64966;SDS011;51710;38.732;-121.358;2022-12-18T10:12:12;19.23;;;12.25;;
64966;SDS011;51710;38.732;-121.358;2022-12-18T10:14:46;19.80;;;11.60;;
64966;SDS011;51710;38.732;-121.358;2022-12-18T10:17:26;24.88;;;13.30;;
64966;SDS011;51710;38.732;-121.358;2022-12-18T10:23:03;20.42;;;11.80;;
64966;SDS011;51710;38.732;-121.358;2022-12-18T10:26:04;22.30;;;11.82;;
64966;SDS011;51710;38.732;-121.358;2022-12-18T10:28:34;25.67;;;12.13;;
64966;SDS011;51710;38.732;-121.358;2022-12-18T10:31:22;22.95;;;11.77;;
64966;SDS011;51710;38.732;-121.358;2022-12-18T10:33:49;22.27;;;12.13;;
64966;SDS011;51710;38.732;-121.358;2022-12-18T10:36:16;19.73;;;12.05;;
64966;SDS011;51710;38.732;-121.358;2022-12-18T10:38:43;23.05;;;11.88;;
64966;SDS011;51710;38.732;-121.358;2022-12-18T10:43:47;22.05;;;11.93;;
64966;SDS011;51710;38.732;-121.358;2022-12-18T10:46:17;21.88;;;11.93;;
64966;SDS011;51710;38.732;-121.358;2022-12-18T10:48:55;19.42;;;11.10;;
64966;SDS011;51710;38.732;-121.358;2022-12-18T10:51:23;22.13;;;12.23;;
64966;SDS011;51710;38.732;-121.358;2022-12-18T10:54:03;20.63;;;10.85;;
64966;SDS011;51710;38.732;-121.358;2022-12-18T10:56:33;20.88;;;11.80;;
64966;SDS011;51710;38.732;-121.358;2022-12-18T10:59:05;25.38;;;12.23;;
64966;SDS011;51710;38.732;-121.358;2022-12-18T11:01:47;23.15;;;12.13;;
64966;SDS011;51710;38.732;-121.358;2022-12-18T11:04:25;21.75;;;11.43;;
64966;SDS011;51710;38.732;-121.358;2022-12-18T11:09:24;24.45;;;12.75;;
64966;SDS011;51710;38.732;-121.358;2022-12-18T11:11:54;25.85;;;12.15;;
64966;SDS011;51710;38.732;-121.358;2022-12-18T11:16:58;20.33;;;12.30;;
64966;SDS011;51710;38.732;-121.358;2022-12-18T11:19:39;24.30;;;11.35;;
64966;SDS011;51710;38.732;-121.358;2022-12-18T11:22:28;21.90;;;11.57;;
64966;SDS011;51710;38.732;-121.358;2022-12-18T11:24:57;22.92;;;12.00;;
64966;SDS011;51710;38.732;-121.358;2022-12-18T11:27:26;22.88;;;12.43;;
64966;SDS011;51710;38.732;-121.358;2022-12-18T11:30:06;18.98;;;10.90;;
64966;SDS011;51710;38.732;-121.358;2022-12-18T11:32:48;24.30;;;11.70;;
64966;SDS011;51710;38.732;-121.358;2022-12-18T11:35:41;21.90;;;12.27;;
64966;SDS011;51710;38.732;-121.358;2022-12-18T11:38:22;21.80;;;12.15;;
64966;SDS011;51710;38.732;-121.358;2022-12-18T11:40:55;21.70;;;11.68;;
64966;SDS011;51710;38.732;-121.358;2022-12-18T11:43:42;23.60;;;11.88;;
64966;SDS011;51710;38.732;-121.358;2022-12-18T11:46:37;20.05;;;10.60;;
64966;SDS011;51710;38.732;-121.358;2022-12-18T11:49:27;27.55;;;11.90;;
64966;SDS011;51710;38.732;-121.358;2022-12-18T11:54:31;19.20;;;11.30;;
64966;SDS011;51710;38.732;-121.358;2022-12-18T11:56:58;23.75;;;11.85;;
64966;SDS011;51710;38.732;-121.358;2022-12-18T12:13:52;20.08;;;10.23;;
64966;SDS011;51710;38.732;-121.358;2022-12-18T12:16:47;26.42;;;12.10;;
64966;SDS011;51710;38.732;-121.358;2022-12-18T12:22:45;23.33;;;10.95;;
64966;SDS011;51710;38.732;-121.358;2022-12-18T12:31:05;19.50;;;9.85;;
64966;SDS011;51710;38.732;-121.358;2022-12-18T12:36:52;20.48;;;9.18;;
64966;SDS011;51710;38.732;-121.358;2022-12-18T12:39:38;20.63;;;10.95;;
64966;SDS011;51710;38.732;-121.358;2022-12-18T12:42:14;19.23;;;10.88;;
64966;SDS011;51710;38.732;-121.358;2022-12-18T12:45:05;24.40;;;11.00;;
64966;SDS011;51710;38.732;-121.358;2022-12-18T12:47:40;19.80;;;10.57;;
64966;SDS011;51710;38.732;-121.358;2022-12-18T12:50:15;20.20;;;10.00;;
64966;SDS011;51710;38.732;-121.358;2022-12-18T12:52:54;19.55;;;9.95;;
64966;SDS011;51710;38.732;-121.358;2022-12-18T12:55:26;21.05;;;10.05;;
64966;SDS011;51710;38.732;-121.358;2022-12-18T12:57:56;20.88;;;10.77;;
64966;SDS011;51710;38.732;-121.358;2022-12-18T13:00:45;26.63;;;11.23;;
64966;SDS011;51710;38.732;-121.358;2022-12-18T13:03:41;22.50;;;10.45;;
64966;SDS011;51710;38.732;-121.358;2022-12-18T13:06:12;22.60;;;10.23;;
64966;SDS011;51710;38.732;-121.358;2022-12-18T13:08:53;25.55;;;10.98;;
64966;SDS011;51710;38.732;-121.358;2022-12-18T13:11:28;26.17;;;11.15;;
64966;SDS011;51710;38.732;-121.358;2022-12-18T13:14:24;22.02;;;10.40;;
64966;SDS011;51710;38.732;-121.358;2022-12-18T13:17:16;20.45;;;10.98;;
64966;SDS011;51710;38.732;-121.358;2022-12-18T13:19:49;23.85;;;10.13;;
64966;SDS011;51710;38.732;-121.358;2022-12-18T13:22:28;24.50;;;11.10;;
64966;SDS011;51710;38.732;-121.358;2022-12-18T13:27:59;21.33;;;9.82;;
64966;SDS011;51710;38.732;-121.358;2022-12-18T13:35:41;17.80;;;8.88;;
64966;SDS011;51710;38.732;-121.358;2022-12-18T13:43:24;23.05;;;10.05;;
64966;SDS011;51710;38.732;-121.358;2022-12-18T13:46:03;19.92;;;9.10;;
64966;SDS011;51710;38.732;-121.358;2022-12-18T13:48:35;20.75;;;9.75;;
64966;SDS011;51710;38.732;-121.358;2022-12-18T13:51:07;19.08;;;9.40;;
64966;SDS011;51710;38.732;-121.358;2022-12-18T13:53:38;16.83;;;8.45;;
64966;SDS011;51710;38.732;-121.358;2022-12-18T13:56:14;19.08;;;8.55;;
64966;SDS011;51710;38.732;-121.358;2022-12-18T13:58:42;15.57;;;8.05;;
64966;SDS011;51710;38.732;-121.358;2022-12-18T14:01:41;19.60;;;9.32;;
64966;SDS011;51710;38.732;-121.358;2022-12-18T14:04:18;14.05;;;8.52;;
64966;SDS011;51710;38.732;-121.358;2022-12-18T14:06:51;17.50;;;8.15;;
64966;SDS011;51710;38.732;-121.358;2022-12-18T14:09:25;16.05;;;8.75;;
64966;SDS011;51710;38.732;-121.358;2022-12-18T14:11:55;18.30;;;8.52;;
64966;SDS011;51710;38.732;-121.358;2022-12-18T14:14:44;14.40;;;7.90;;
64966;SDS011;51710;38.732;-121.358;2022-12-18T14:17:12;15.93;;;8.88;;
64966;SDS011;51710;38.732;-121.358;2022-12-18T14:19:49;18.98;;;9.70;;
64966;SDS011;51710;38.732;-121.358;2022-12-18T14:22:25;17.73;;;10.18;;
64966;SDS011;51710;38.732;-121.358;2022-12-18T14:27:42;18.57;;;8.90;;
64966;SDS011;51710;38.732;-121.358;2022-12-18T14:30:32;16.52;;;8.00;;
64966;SDS011;51710;38.732;-121.358;2022-12-18T14:33:03;16.05;;;8.57;;
64966;SDS011;51710;38.732;-121.358;2022-12-18T14:35:34;18.20;;;8.43;;
64966;SDS011;51710;38.732;-121.358;2022-12-18T14:40:53;15.70;;;8.38;;
64966;SDS011;51710;38.732;-121.358;2022-12-18T14:43:25;17.67;;;7.88;;
64966;SDS011;51710;38.732;-121.358;2022-12-18T14:45:56;18.20;;;9.30;;
64966;SDS011;51710;38.732;-121.358;2022-12-18T14:48:35;17.83;;;8.82;;
64966;SDS011;51710;38.732;-121.358;2022-12-18T14:54:03;21.60;;;8.82;;
64966;SDS011;51710;38.732;-121.358;2022-12-18T14:56:35;20.52;;;9.90;;
64966;SDS011;51710;38.732;-121.358;2022-12-18T14:59:15;17.55;;;9.25;;
64966;SDS011;51710;38.732;-121.358;2022-12-18T15:02:10;20.50;;;9.63;;
64966;SDS011;51710;38.732;-121.358;2022-12-18T15:04:45;18.13;;;8.98;;
64966;SDS011;51710;38.732;-121.358;2022-12-18T15:07:22;14.90;;;9.15;;
64966;SDS011;51710;38.732;-121.358;2022-12-18T15:13:06;15.00;;;8.00;;
64966;SDS011;51710;38.732;-121.358;2022-12-18T15:18:05;15.75;;;8.30;;
64966;SDS011;51710;38.732;-121.358;2022-12-18T15:26:09;19.65;;;9.23;;
64966;SDS011;51710;38.732;-121.358;2022-12-18T15:28:53;28.55;;;10.98;;
64966;SDS011;51710;38.732;-121.358;2022-12-18T15:31:29;25.40;;;8.18;;
64966;SDS011;51710;38.732;-121.358;2022-12-18T15:36:24;16.05;;;8.07;;
64966;SDS011;51710;38.732;-121.358;2022-12-18T15:39:11;15.63;;;8.48;;
64966;SDS011;51710;38.732;-121.358;2022-12-18T15:41:38;19.80;;;9.23;;
64966;SDS011;51710;38.732;-121.358;2022-12-18T15:44:23;16.67;;;8.60;;
64966;SDS011;51710;38.732;-121.358;2022-12-18T15:46:50;15.43;;;8.38;;
64966;SDS011;51710;38.732;-121.358;2022-12-18T15:49:17;20.40;;;9.07;;
64966;SDS011;51710;38.732;-121.358;2022-12-18T15:51:43;14.73;;;8.38;;
64966;SDS011;51710;38.732;-121.358;2022-12-18T15:54:18;21.13;;;10.55;;
64966;SDS011;51710;38.732;-121.358;2022-12-18T15:57:04;15.55;;;8.85;;
64966;SDS011;51710;38.732;-121.358;2022-12-18T15:59:49;14.63;;;8.60;;
64966;SDS011;51710;38.732;-121.358;2022-12-18T16:02:18;19.38;;;8.35;;
64966;SDS011;51710;38.732;-121.358;2022-12-18T16:04:48;15.68;;;8.25;;